createdAt,value
2023-04-07T00:01:58.079Z,8.70
2023-04-07T00:04:27.706Z,8.70
2023-04-07T00:06:56.160Z,8.70
2023-04-07T00:09:24.357Z,8.60
2023-04-07T00:11:52.583Z,8.60
2023-04-07T00:14:20.552Z,8.60
2023-04-07T00:16:48.458Z,8.60
2023-04-07T00:19:16.723Z,8.60
2023-04-07T00:21:45.968Z,8.60
2023-04-07T00:24:20.991Z,8.60
2023-04-07T00:26:56.716Z,8.60
2023-04-07T00:29:24.667Z,8.60
2023-04-07T00:31:52.545Z,8.60
2023-04-07T00:34:20.497Z,8.60
2023-04-07T00:36:52.184Z,8.60
2023-04-07T00:39:20.171Z,8.60
2023-04-07T00:41:48.541Z,8.60
2023-04-07T00:44:16.634Z,8.70
2023-04-07T00:46:44.834Z,8.70
2023-04-07T00:49:13.744Z,8.60
2023-04-07T00:51:42.176Z,8.70
2023-04-07T00:54:12.078Z,8.60
2023-04-07T00:56:41.904Z,8.70
2023-04-07T00:59:11.172Z,8.70
2023-04-07T01:01:46.225Z,8.60
2023-04-07T01:04:23.778Z,8.70
2023-04-07T01:06:55.417Z,8.60
2023-04-07T01:09:31.524Z,8.60
2023-04-07T01:12:06.485Z,8.60
2023-04-07T01:14:38.610Z,8.60
2023-04-07T01:17:08.772Z,8.70
2023-04-07T01:19:40.309Z,8.60
2023-04-07T01:22:13.478Z,8.70
2023-04-07T01:25:04.398Z,8.60
2023-04-07T01:27:43.846Z,8.70
2023-04-07T01:30:14.347Z,8.70
2023-04-07T01:32:45.731Z,8.70
2023-04-07T01:35:21.173Z,8.70
2023-04-07T01:38:00.407Z,8.70
2023-04-07T01:40:29.918Z,8.70
2023-04-07T01:42:59.028Z,8.70
2023-04-07T01:45:29.846Z,8.70
2023-04-07T01:47:58.848Z,8.70
2023-04-07T01:50:33.912Z,8.70
2023-04-07T01:53:02.808Z,8.70
2023-04-07T01:55:30.965Z,8.70
2023-04-07T01:58:00.582Z,8.70
2023-04-07T02:00:29.796Z,8.70
2023-04-07T02:03:06.563Z,8.70
2023-04-07T02:05:37.113Z,8.70
2023-04-07T02:08:07.147Z,8.70
2023-04-07T02:10:40.479Z,8.70
2023-04-07T02:13:14.291Z,8.70
2023-04-07T02:26:28.900Z,8.70
2023-04-07T02:28:56.860Z,8.70
2023-04-07T02:31:26.266Z,8.70
2023-04-07T02:33:54.404Z,8.70
2023-04-07T02:36:23.337Z,8.70
2023-04-07T02:38:51.465Z,8.70
2023-04-07T02:41:19.351Z,8.70
2023-04-07T02:43:47.434Z,8.80
2023-04-07T02:46:16.481Z,8.80
2023-04-07T02:48:46.118Z,8.70
2023-04-07T02:51:14.015Z,8.80
2023-04-07T02:53:41.988Z,8.70
2023-04-07T02:56:25.913Z,8.70
2023-04-07T02:58:54.077Z,8.70
2023-04-07T03:01:22.065Z,8.70
2023-04-07T03:03:51.583Z,8.70
2023-04-07T03:06:19.753Z,8.80
2023-04-07T03:08:47.889Z,8.80
2023-04-07T03:11:16.228Z,8.80
2023-04-07T03:13:44.112Z,8.80
2023-04-07T03:16:12.086Z,8.70
2023-04-07T03:18:40.047Z,8.80
2023-04-07T03:21:09.359Z,8.80
2023-04-07T03:23:37.320Z,8.80
2023-04-07T03:26:05.254Z,8.80
2023-04-07T03:28:33.180Z,8.80
2023-04-07T03:31:01.158Z,8.80
2023-04-07T03:33:29.117Z,8.80
2023-04-07T03:35:57.439Z,8.80
2023-04-07T03:38:27.178Z,8.80
2023-04-07T03:40:55.100Z,8.80
2023-04-07T03:43:23.094Z,8.80
2023-04-07T03:45:51.570Z,8.80
2023-04-07T03:48:19.551Z,8.80
2023-04-07T03:50:47.680Z,8.80
2023-04-07T03:53:16.877Z,8.80
2023-04-07T03:55:46.494Z,8.70
2023-04-07T03:58:15.060Z,8.70
2023-04-07T04:00:43.337Z,8.70
2023-04-07T04:03:11.902Z,8.70
2023-04-07T04:05:40.869Z,8.60
2023-04-07T04:08:08.849Z,8.70
2023-04-07T04:10:36.797Z,8.70
2023-04-07T04:13:07.939Z,8.70
2023-04-07T04:15:35.812Z,8.70
2023-04-07T04:18:03.900Z,8.70
2023-04-07T04:20:31.892Z,8.70
2023-04-07T04:22:59.831Z,8.70
2023-04-07T04:25:27.714Z,8.70
2023-04-07T04:27:56.014Z,8.70
2023-04-07T04:30:25.782Z,8.70
2023-04-07T04:32:53.870Z,8.80
2023-04-07T04:35:21.908Z,8.70
2023-04-07T04:37:49.908Z,8.70
2023-04-07T04:40:18.417Z,8.70
2023-04-07T04:42:46.293Z,8.70
2023-04-07T04:45:14.244Z,8.70
2023-04-07T04:48:02.966Z,8.70
2023-04-07T04:50:40.368Z,8.70
2023-04-07T04:53:21.580Z,8.70
2023-04-07T04:55:53.225Z,8.70
2023-04-07T04:58:22.120Z,8.70
2023-04-07T05:00:51.253Z,8.60
2023-04-07T05:03:20.796Z,8.60
2023-04-07T05:05:51.646Z,8.70
2023-04-07T05:08:19.666Z,8.70
2023-04-07T05:10:48.388Z,8.70
2023-04-07T05:13:20.766Z,8.60
2023-04-07T05:15:49.115Z,8.60
2023-04-07T05:18:17.051Z,8.60
2023-04-07T05:20:46.634Z,8.60
2023-04-07T05:23:14.502Z,8.60
2023-04-07T05:25:42.455Z,8.60
2023-04-07T05:28:10.406Z,8.60
2023-04-07T05:31:02.167Z,8.60
2023-04-07T05:33:30.427Z,8.60
2023-04-07T05:36:02.142Z,8.60
2023-04-07T05:38:30.050Z,8.60
2023-04-07T05:40:57.957Z,8.70
2023-04-07T05:43:25.996Z,8.60
2023-04-07T05:45:54.012Z,8.60
2023-04-07T05:48:21.896Z,8.60
2023-04-07T05:50:49.805Z,8.60
2023-04-07T05:53:19.272Z,8.70
2023-04-07T05:55:47.232Z,8.70
2023-04-07T05:58:15.136Z,8.70
2023-04-07T06:00:43.080Z,8.70
2023-04-07T06:03:11.344Z,8.70
2023-04-07T06:05:43.466Z,8.60
2023-04-07T06:08:11.544Z,8.70
2023-04-07T06:10:41.684Z,8.70
2023-04-07T06:13:09.674Z,8.70
2023-04-07T06:15:37.581Z,8.70
2023-04-07T06:18:05.691Z,8.70
2023-04-07T06:20:33.660Z,8.70
2023-04-07T06:23:01.960Z,8.70
2023-04-07T06:25:29.926Z,8.70
2023-04-07T06:27:59.359Z,8.60
2023-04-07T06:30:27.267Z,8.70
2023-04-07T06:32:55.226Z,8.70
2023-04-07T06:35:23.363Z,8.70
2023-04-07T06:37:51.371Z,8.70
2023-04-07T06:40:19.453Z,8.70
2023-04-07T06:42:47.422Z,8.70
2023-04-07T06:45:18.217Z,8.70
2023-04-07T06:47:48.462Z,8.70
2023-04-07T06:50:20.630Z,8.70
2023-04-07T06:52:48.557Z,8.70
2023-04-07T06:55:16.689Z,8.70
2023-04-07T06:57:44.824Z,8.70
2023-04-07T07:00:13.367Z,8.70
2023-04-07T07:02:42.707Z,8.80
2023-04-07T07:05:11.516Z,8.80
2023-04-07T07:07:40.788Z,8.80
2023-04-07T07:10:10.546Z,8.80
2023-04-07T07:12:38.416Z,8.70
2023-04-07T07:15:25.799Z,8.80
2023-04-07T07:18:12.510Z,8.80
2023-04-07T07:20:40.653Z,8.80
2023-04-07T07:23:09.432Z,8.80
2023-04-07T07:25:38.163Z,8.80
2023-04-07T07:28:06.223Z,8.80
2023-04-07T07:30:34.188Z,8.80
2023-04-07T07:33:02.138Z,8.80
2023-04-07T07:35:32.718Z,8.80
2023-04-07T07:38:00.637Z,8.80
2023-04-07T07:40:28.646Z,8.80
2023-04-07T07:42:57.790Z,8.80
2023-04-07T07:45:30.648Z,8.80
2023-04-07T07:47:59.853Z,8.80
2023-04-07T07:50:27.849Z,8.80
2023-04-07T07:52:57.184Z,8.80
2023-04-07T07:55:25.353Z,8.80
2023-04-07T07:57:54.786Z,8.80
2023-04-07T08:00:24.014Z,8.80
2023-04-07T08:02:54.142Z,8.80
2023-04-07T08:05:27.350Z,8.80
2023-04-07T08:07:58.527Z,8.80
2023-04-07T08:10:26.516Z,8.80
2023-04-07T08:12:54.689Z,8.90
2023-04-07T08:15:22.732Z,8.90
2023-04-07T08:17:56.386Z,8.90
2023-04-07T08:20:26.840Z,8.90
2023-04-07T08:22:58.789Z,8.90
2023-04-07T08:25:33.778Z,8.90
2023-04-07T08:28:01.725Z,8.90
2023-04-07T08:30:34.217Z,9.00
2023-04-07T08:33:02.195Z,9.00
2023-04-07T08:35:30.349Z,9.00
2023-04-07T08:37:59.820Z,9.00
2023-04-07T08:40:27.686Z,9.00
2023-04-07T08:42:56.074Z,9.10
2023-04-07T08:45:29.732Z,9.10
2023-04-07T08:48:00.630Z,9.10
2023-04-07T08:50:30.278Z,9.10
2023-04-07T08:53:04.485Z,9.10
2023-04-07T08:55:33.707Z,9.10
2023-04-07T08:58:02.221Z,9.10
2023-04-07T09:00:31.795Z,9.10
2023-04-07T09:03:03.430Z,9.10
2023-04-07T09:05:32.302Z,9.10
2023-04-07T09:08:03.042Z,9.10
2023-04-07T09:10:33.840Z,9.10
2023-04-07T09:13:01.951Z,9.10
2023-04-07T09:15:37.357Z,9.10
2023-04-07T09:18:06.757Z,9.10
2023-04-07T09:20:58.460Z,9.10
2023-04-07T09:23:32.478Z,9.10
2023-04-07T09:26:03.169Z,9.10
2023-04-07T09:28:44.403Z,9.20
2023-04-07T09:31:12.424Z,9.20
2023-04-07T09:33:46.846Z,9.20
2023-04-07T09:36:15.073Z,9.20
2023-04-07T09:38:50.061Z,9.20
2023-04-07T09:41:21.317Z,9.30
2023-04-07T09:43:50.589Z,9.30
2023-04-07T09:46:25.608Z,9.30
2023-04-07T09:49:05.810Z,9.40
2023-04-07T09:51:36.755Z,9.40
2023-04-07T09:54:06.166Z,9.40
2023-04-07T09:56:34.339Z,9.50
2023-04-07T09:59:04.118Z,9.50
2023-04-07T10:01:32.181Z,9.50
2023-04-07T10:04:01.111Z,9.50
2023-04-07T10:06:30.817Z,9.50
2023-04-07T10:08:59.156Z,9.40
2023-04-07T10:11:28.540Z,9.50
2023-04-07T10:13:58.319Z,9.50
2023-04-07T10:16:27.157Z,9.50
2023-04-07T10:18:57.313Z,9.50
2023-04-07T10:21:33.018Z,9.50
2023-04-07T10:24:09.296Z,9.50
2023-04-07T10:26:41.846Z,9.50
2023-04-07T10:29:12.868Z,9.50
2023-04-07T10:31:41.096Z,9.50
2023-04-07T10:34:09.557Z,9.40
2023-04-07T10:36:38.704Z,9.40
2023-04-07T10:39:23.464Z,9.40
2023-04-07T10:41:54.404Z,9.40
2023-04-07T10:44:51.772Z,9.40
2023-04-07T10:47:19.725Z,9.40
2023-04-07T10:50:16.813Z,9.40
2023-04-07T10:52:47.131Z,9.40
2023-04-07T10:55:40.646Z,9.40
2023-04-07T10:58:24.337Z,9.40
2023-04-07T11:01:20.845Z,9.50
2023-04-07T11:04:02.006Z,9.50
2023-04-07T11:06:30.177Z,9.40
2023-04-07T11:08:58.084Z,9.50
2023-04-07T11:11:42.520Z,9.50
2023-04-07T11:14:11.858Z,9.50
2023-04-07T11:16:42.708Z,9.50
2023-04-07T11:19:11.431Z,9.50
2023-04-07T11:21:39.363Z,9.50
2023-04-07T11:24:07.441Z,9.50
2023-04-07T11:26:41.456Z,9.50
2023-04-07T11:29:12.098Z,9.50
2023-04-07T11:31:50.208Z,9.50
2023-04-07T11:34:18.320Z,9.50
2023-04-07T11:36:46.333Z,9.50
2023-04-07T11:39:21.672Z,9.50
2023-04-07T11:41:50.719Z,9.60
2023-04-07T11:44:21.257Z,9.60
2023-04-07T11:46:57.240Z,9.60
2023-04-07T11:49:26.138Z,9.60
2023-04-07T11:52:00.835Z,9.60
2023-04-07T11:54:28.819Z,9.60
2023-04-07T11:56:58.992Z,9.60
2023-04-07T11:59:29.995Z,9.60
2023-04-07T12:01:58.280Z,9.60
2023-04-07T12:04:26.696Z,9.60
2023-04-07T12:06:54.832Z,9.60
2023-04-07T12:09:31.912Z,9.60
2023-04-07T12:12:00.245Z,9.60
2023-04-07T12:14:33.200Z,9.60
2023-04-07T12:17:03.410Z,9.60
2023-04-07T12:19:35.004Z,9.60
2023-04-07T12:22:03.119Z,9.60
2023-04-07T12:24:32.322Z,9.60
2023-04-07T12:27:00.662Z,9.70
2023-04-07T12:29:30.076Z,9.60
2023-04-07T12:31:59.860Z,9.60
2023-04-07T12:34:30.033Z,9.70
2023-04-07T12:36:58.002Z,9.60
2023-04-07T12:39:26.235Z,9.60
2023-04-07T12:41:54.172Z,9.60
2023-04-07T12:44:22.115Z,9.60
2023-04-07T12:46:53.651Z,9.60
2023-04-07T12:49:21.911Z,9.60
2023-04-07T12:51:50.681Z,9.60
2023-04-07T12:54:18.697Z,9.60
2023-04-07T12:56:48.883Z,9.60
2023-04-07T12:59:29.358Z,9.60
2023-04-07T13:02:28.713Z,9.60
2023-04-07T13:05:23.390Z,9.60
2023-04-07T13:07:52.413Z,9.60
2023-04-07T13:10:28.660Z,9.70
2023-04-07T13:13:20.842Z,9.70
2023-04-07T13:15:51.085Z,9.70
2023-04-07T13:18:20.366Z,9.70
2023-04-07T13:21:02.871Z,9.70
2023-04-07T13:23:43.721Z,9.80
2023-04-07T13:26:28.171Z,9.80
2023-04-07T13:28:56.115Z,9.80
2023-04-07T13:31:26.272Z,9.80
2023-04-07T13:34:25.844Z,9.80
2023-04-07T13:36:53.699Z,9.80
2023-04-07T13:39:21.629Z,9.80
2023-04-07T13:42:12.188Z,9.80
2023-04-07T13:44:54.073Z,9.80
2023-04-07T13:50:48.145Z,9.80
2023-04-07T13:53:18.847Z,9.80
2023-04-07T13:55:47.087Z,9.80
2023-04-07T13:58:17.818Z,9.80
2023-04-07T14:00:46.936Z,9.80
2023-04-07T14:03:20.849Z,9.80
2023-04-07T14:05:50.796Z,9.80
2023-04-07T14:08:18.994Z,9.80
2023-04-07T14:10:46.837Z,9.80
2023-04-07T14:13:33.145Z,9.80
2023-04-07T14:16:04.815Z,9.80
2023-04-07T14:18:38.533Z,9.80
2023-04-07T14:21:11.177Z,9.80
2023-04-07T14:24:00.005Z,9.80
2023-04-07T14:29:57.977Z,9.90
2023-04-07T14:32:36.327Z,9.80
2023-04-07T14:35:06.656Z,9.80
2023-04-07T14:37:41.747Z,9.80
2023-04-07T14:40:21.381Z,9.80
2023-04-07T14:45:46.516Z,9.80
2023-04-07T14:48:18.940Z,9.80
2023-04-07T14:51:09.279Z,9.80
2023-04-07T14:53:59.196Z,9.80
2023-04-07T14:56:28.659Z,9.80
2023-04-07T14:58:56.606Z,9.80
2023-04-07T15:01:26.120Z,9.80
2023-04-07T15:03:58.626Z,9.80
2023-04-07T15:06:45.610Z,9.80
2023-04-07T15:09:25.688Z,9.80
2023-04-07T15:12:19.633Z,9.80
2023-04-07T15:14:49.641Z,9.80
2023-04-07T15:17:23.522Z,9.70
2023-04-07T15:19:58.686Z,9.60
2023-04-07T15:22:36.819Z,9.60
2023-04-07T15:25:08.964Z,9.60
2023-04-07T15:28:11.820Z,9.60
2023-04-07T15:30:52.004Z,9.60
2023-04-07T15:33:23.884Z,9.60
2023-04-07T15:35:56.665Z,9.60
2023-04-07T15:38:25.130Z,9.50
2023-04-07T15:41:00.506Z,9.50
2023-04-07T15:43:28.489Z,9.50
2023-04-07T15:46:02.733Z,9.50
2023-04-07T15:48:31.225Z,9.50
2023-04-07T15:51:03.907Z,9.50
2023-04-07T15:53:34.006Z,9.50
2023-04-07T15:56:03.367Z,9.60
2023-04-07T15:58:32.924Z,9.60
2023-04-07T16:01:02.252Z,9.60
2023-04-07T16:03:32.781Z,9.60
2023-04-07T16:06:02.910Z,9.70
2023-04-07T16:08:34.289Z,9.70
2023-04-07T16:11:22.152Z,9.70
2023-04-07T16:13:53.777Z,9.70
2023-04-07T16:16:31.993Z,9.70
2023-04-07T16:19:02.878Z,9.70
2023-04-07T16:21:44.857Z,9.60
2023-04-07T16:24:12.863Z,9.60
2023-04-07T16:27:04.748Z,9.50
2023-04-07T16:29:32.740Z,9.50
2023-04-07T16:32:01.147Z,9.40
2023-04-07T16:34:49.888Z,9.50
2023-04-07T16:37:22.793Z,9.50
2023-04-07T16:39:51.080Z,9.50
2023-04-07T16:42:22.236Z,9.50
2023-04-07T16:47:49.066Z,9.60
2023-04-07T16:50:24.625Z,9.60
2023-04-07T16:53:05.276Z,9.60
2023-04-07T16:55:51.243Z,9.70
2023-04-07T16:58:22.193Z,9.70
2023-04-07T17:00:52.189Z,9.70
2023-04-07T17:03:20.265Z,9.70
2023-04-07T17:05:54.168Z,9.80
2023-04-07T17:08:25.690Z,9.80
2023-04-07T17:11:03.094Z,9.80
2023-04-07T17:13:32.593Z,9.80
2023-04-07T17:16:00.785Z,9.80
2023-04-07T17:18:45.718Z,9.80
2023-04-07T17:21:25.026Z,9.80
2023-04-07T17:23:53.013Z,9.70
2023-04-07T17:26:21.261Z,9.70
2023-04-07T17:28:53.438Z,9.70
2023-04-07T17:31:24.850Z,9.70
2023-04-07T17:33:54.009Z,9.70
2023-04-07T17:36:22.679Z,9.60
2023-04-07T17:38:50.581Z,9.60
2023-04-07T17:41:19.323Z,9.50
2023-04-07T17:43:54.114Z,9.50
2023-04-07T17:46:22.666Z,9.50
2023-04-07T17:48:51.637Z,9.50
2023-04-07T17:51:20.079Z,9.50
2023-04-07T17:53:50.464Z,9.50
2023-04-07T17:56:25.392Z,9.50
2023-04-07T17:58:54.982Z,9.40
2023-04-07T18:01:23.414Z,9.50
2023-04-07T18:03:53.521Z,9.50
2023-04-07T18:06:36.608Z,9.50
2023-04-07T18:09:28.500Z,9.50
2023-04-07T18:11:56.651Z,9.50
2023-04-07T18:14:26.011Z,9.60
2023-04-07T18:16:54.579Z,9.60
2023-04-07T18:19:22.910Z,9.60
2023-04-07T18:21:54.683Z,9.60
2023-04-07T18:24:35.545Z,9.60
2023-04-07T18:27:05.713Z,9.60
2023-04-07T18:29:42.745Z,9.60
2023-04-07T18:32:12.718Z,9.60
2023-04-07T18:34:48.044Z,9.60
2023-04-07T18:37:16.560Z,9.60
2023-04-07T18:39:46.492Z,9.60
2023-04-07T18:42:14.919Z,9.60
2023-04-07T18:45:06.197Z,9.60
2023-04-07T18:47:34.104Z,9.60
2023-04-07T18:50:07.908Z,9.60
2023-04-07T18:52:38.013Z,9.50
2023-04-07T18:55:18.728Z,9.60
2023-04-07T18:57:49.294Z,9.50
2023-04-07T19:00:38.919Z,9.40
2023-04-07T19:03:25.518Z,9.40
2023-04-07T19:05:55.862Z,9.30
2023-04-07T19:08:33.650Z,9.30
2023-04-07T19:11:09.057Z,9.30
2023-04-07T19:16:34.444Z,9.30
2023-04-07T19:19:07.391Z,9.30
2023-04-07T19:21:47.052Z,9.30
2023-04-07T19:24:15.088Z,9.30
2023-04-07T19:26:59.622Z,9.30
2023-04-07T19:29:45.780Z,9.30
2023-04-07T19:32:19.691Z,9.30
2023-04-07T19:35:08.790Z,9.30
2023-04-07T19:37:37.884Z,9.30
2023-04-07T19:40:25.389Z,9.30
2023-04-07T19:43:41.057Z,9.30
2023-04-07T19:46:10.024Z,9.20
2023-04-07T19:48:45.273Z,9.20
2023-04-07T19:51:15.562Z,9.20
2023-04-07T19:53:43.484Z,9.20
2023-04-07T19:56:13.753Z,9.20
2023-04-07T19:58:43.295Z,9.20
2023-04-07T20:01:17.694Z,9.20
2023-04-07T20:03:54.989Z,9.10
2023-04-07T20:06:26.570Z,9.10
2023-04-07T20:09:01.368Z,9.10
2023-04-07T20:11:30.935Z,9.00
2023-04-07T20:13:59.243Z,9.00
2023-04-07T20:16:27.506Z,9.00
2023-04-07T20:18:56.808Z,9.00
2023-04-07T20:21:25.327Z,9.00
2023-04-07T20:23:53.545Z,9.00
2023-04-07T20:26:22.357Z,9.00
2023-04-07T20:28:50.411Z,9.00
2023-04-07T20:31:25.938Z,9.00
2023-04-07T20:33:54.315Z,9.00
2023-04-07T20:36:24.902Z,9.00
2023-04-07T20:38:58.658Z,9.00
2023-04-07T20:41:27.192Z,9.00
2023-04-07T20:43:57.211Z,9.00
2023-04-07T20:46:32.461Z,8.90
2023-04-07T20:49:00.912Z,8.90
2023-04-07T20:51:32.507Z,8.90
2023-04-07T20:54:00.463Z,8.80
2023-04-07T20:56:29.121Z,8.80
2023-04-07T20:58:59.319Z,8.70
2023-04-07T21:01:27.723Z,8.70
2023-04-07T21:04:00.743Z,8.70
2023-04-07T21:06:32.472Z,8.60
2023-04-07T21:09:01.300Z,8.50
2023-04-07T21:11:29.258Z,8.50
2023-04-07T21:13:57.217Z,8.40
2023-04-07T21:16:25.846Z,8.30
2023-04-07T21:18:59.941Z,8.20
2023-04-07T21:21:38.386Z,8.20
2023-04-07T21:24:07.781Z,8.20
2023-04-07T21:26:36.050Z,8.20
2023-04-07T21:29:27.921Z,8.30
2023-04-07T21:31:58.111Z,8.30
2023-04-07T21:34:26.620Z,8.40
2023-04-07T21:36:58.367Z,8.40
2023-04-07T21:39:26.523Z,8.50
2023-04-07T21:41:55.607Z,8.50
2023-04-07T21:44:25.883Z,8.50
2023-04-07T21:46:54.710Z,8.50
2023-04-07T21:49:23.012Z,8.50
2023-04-07T21:51:51.622Z,8.50
2023-04-07T21:54:28.743Z,8.50
2023-04-07T21:56:57.655Z,8.50
2023-04-07T21:59:25.792Z,8.50
2023-04-07T22:01:53.742Z,8.50
2023-04-07T22:04:42.203Z,8.50
2023-04-07T22:07:10.668Z,8.50
2023-04-07T22:09:46.002Z,8.50
2023-04-07T22:12:15.453Z,8.50
2023-04-07T22:14:49.919Z,8.50
2023-04-07T22:17:21.096Z,8.50
2023-04-07T22:19:49.058Z,8.40
2023-04-07T22:22:17.227Z,8.40
2023-04-07T22:24:48.281Z,8.30
2023-04-07T22:27:23.451Z,8.20
2023-04-07T22:29:52.697Z,8.10
2023-04-07T22:32:20.847Z,8.00
2023-04-07T22:34:55.946Z,8.10
2023-04-07T22:37:26.158Z,8.10
2023-04-07T22:39:55.537Z,8.00
2023-04-07T22:42:25.840Z,8.00
2023-04-07T22:44:53.921Z,8.00
2023-04-07T22:47:22.884Z,7.90
2023-04-07T22:49:59.407Z,7.90
2023-04-07T22:52:29.191Z,7.90
2023-04-07T22:54:58.827Z,7.80
2023-04-07T22:57:29.066Z,7.70
2023-04-07T22:59:57.077Z,7.70
2023-04-07T23:02:27.866Z,7.60
2023-04-07T23:05:40.357Z,7.60
2023-04-07T23:11:29.567Z,7.60
2023-04-07T23:13:58.187Z,7.60
2023-04-07T23:16:26.792Z,7.60
2023-04-07T23:18:55.128Z,7.60
2023-04-07T23:21:27.309Z,7.60
2023-04-07T23:23:56.244Z,7.70
2023-04-07T23:26:34.557Z,7.70
2023-04-07T23:29:02.775Z,7.70
2023-04-07T23:31:31.486Z,7.70
2023-04-07T23:34:05.928Z,7.60
2023-04-07T23:36:33.780Z,7.50
2023-04-07T23:39:02.273Z,7.50
2023-04-07T23:41:33.110Z,7.50
2023-04-07T23:44:23.635Z,7.50
2023-04-07T23:47:11.386Z,7.60
2023-04-07T23:49:39.338Z,7.60
2023-04-07T23:52:07.307Z,7.60
2023-04-07T23:54:35.195Z,7.60
2023-04-07T23:57:04.767Z,7.60
2023-04-07T23:59:33.675Z,7.70
